sensor_id;sensor_type;location;lat;lon;timestamp;pressure;altitude;pressure_sealevel;temperature;humidity
54850;BME280;47660;51.334;12.396;2023-03-26T00:00:07;99211.28;;;13.55;83.15
54850;BME280;47660;51.334;12.396;2023-03-26T00:02:37;99197.28;;;13.43;82.75
54850;BME280;47660;51.334;12.396;2023-03-26T00:05:04;99210.53;;;13.73;80.44
54850;BME280;47660;51.334;12.396;2023-03-26T00:07:30;99203.56;;;13.32;86.30
54850;BME280;47660;51.334;12.396;2023-03-26T00:09:55;99203.03;;;13.48;83.41
54850;BME280;47660;51.334;12.396;2023-03-26T00:12:24;99204.19;;;13.06;89.32
54850;BME280;47660;51.334;12.396;2023-03-26T00:14:50;99198.69;;;13.18;90.15
54850;BME280;47660;51.334;12.396;2023-03-26T00:17:18;99212.47;;;13.03;90.10
54850;BME280;47660;51.334;12.396;2023-03-26T00:19:43;99210.63;;;13.23;91.33
54850;BME280;47660;51.334;12.396;2023-03-26T00:22:09;99208.03;;;13.61;89.46
54850;BME280;47660;51.334;12.396;2023-03-26T00:24:38;99211.66;;;13.70;89.29
54850;BME280;47660;51.334;12.396;2023-03-26T00:27:04;99215.25;;;13.21;93.16
54850;BME280;47660;51.334;12.396;2023-03-26T00:29:30;99205.16;;;13.05;94.51
54850;BME280;47660;51.334;12.396;2023-03-26T00:31:57;99202.63;;;13.43;90.45
54850;BME280;47660;51.334;12.396;2023-03-26T00:34:23;99203.72;;;13.31;92.25
54850;BME280;47660;51.334;12.396;2023-03-26T00:36:48;99204.56;;;13.31;91.29
54850;BME280;47660;51.334;12.396;2023-03-26T00:39:18;99197.88;;;12.98;93.36
54850;BME280;47660;51.334;12.396;2023-03-26T00:41:44;99199.22;;;13.31;92.01
54850;BME280;47660;51.334;12.396;2023-03-26T00:44:09;99190.47;;;13.59;90.51
54850;BME280;47660;51.334;12.396;2023-03-26T00:46:35;99196.97;;;13.36;90.37
54850;BME280;47660;51.334;12.396;2023-03-26T00:49:01;99192.47;;;13.27;91.96
54850;BME280;47660;51.334;12.396;2023-03-26T00:51:28;99200.09;;;13.12;90.61
54850;BME280;47660;51.334;12.396;2023-03-26T00:53:54;99194.88;;;13.30;92.68
54850;BME280;47660;51.334;12.396;2023-03-26T00:56:20;99184.91;;;13.80;86.25
54850;BME280;47660;51.334;12.396;2023-03-26T00:58:46;99168.78;;;14.46;83.25
54850;BME280;47660;51.334;12.396;2023-03-26T01:01:21;99191.22;;;13.89;84.82
54850;BME280;47660;51.334;12.396;2023-03-26T01:03:51;99187.59;;;13.22;89.34
54850;BME280;47660;51.334;12.396;2023-03-26T01:06:30;99184.94;;;13.70;87.00
54850;BME280;47660;51.334;12.396;2023-03-26T01:09:02;99194.75;;;13.12;92.42
54850;BME280;47660;51.334;12.396;2023-03-26T01:11:33;99194.88;;;13.30;92.18
54850;BME280;47660;51.334;12.396;2023-03-26T01:16:39;99189.06;;;13.64;89.99
54850;BME280;47660;51.334;12.396;2023-03-26T01:19:24;99197.41;;;13.42;91.21
54850;BME280;47660;51.334;12.396;2023-03-26T01:21:51;99195.16;;;13.37;91.99
54850;BME280;47660;51.334;12.396;2023-03-26T01:24:16;99193.94;;;13.12;91.26
54850;BME280;47660;51.334;12.396;2023-03-26T01:29:31;99199.97;;;12.94;94.20
54850;BME280;47660;51.334;12.396;2023-03-26T01:32:08;99196.75;;;12.90;93.76
54850;BME280;47660;51.334;12.396;2023-03-26T01:37:52;99198.56;;;13.10;94.52
54850;BME280;47660;51.334;12.396;2023-03-26T01:40:36;99197.16;;;13.05;94.45
54850;BME280;47660;51.334;12.396;2023-03-26T01:43:30;99176.13;;;13.70;89.90
54850;BME280;47660;51.334;12.396;2023-03-26T01:46:00;99191.78;;;13.25;90.64
54850;BME280;47660;51.334;12.396;2023-03-26T01:48:33;99188.13;;;13.36;92.67
54850;BME280;47660;51.334;12.396;2023-03-26T01:51:01;99189.25;;;13.33;91.62
54850;BME280;47660;51.334;12.396;2023-03-26T01:53:27;99177.13;;;12.62;95.61
54850;BME280;47660;51.334;12.396;2023-03-26T01:56:27;99178.66;;;13.61;87.64
54850;BME280;47660;51.334;12.396;2023-03-26T02:01:45;99170.84;;;13.50;87.83
54850;BME280;47660;51.334;12.396;2023-03-26T02:06:54;99175.97;;;13.14;91.72
54850;BME280;47660;51.334;12.396;2023-03-26T02:09:24;99174.13;;;13.24;91.26
54850;BME280;47660;51.334;12.396;2023-03-26T02:11:56;99179.59;;;13.03;91.81
54850;BME280;47660;51.334;12.396;2023-03-26T02:14:22;99179.41;;;13.44;89.32
54850;BME280;47660;51.334;12.396;2023-03-26T02:16:48;99187.16;;;13.27;88.80
54850;BME280;47660;51.334;12.396;2023-03-26T02:19:15;99178.97;;;13.86;86.88
54850;BME280;47660;51.334;12.396;2023-03-26T02:21:46;99185.13;;;12.91;93.51
54850;BME280;47660;51.334;12.396;2023-03-26T02:24:13;99182.00;;;12.96;92.46
54850;BME280;47660;51.334;12.396;2023-03-26T02:26:38;99184.13;;;12.92;93.83
54850;BME280;47660;51.334;12.396;2023-03-26T02:29:06;99182.09;;;13.44;89.75
54850;BME280;47660;51.334;12.396;2023-03-26T02:31:32;99186.91;;;12.91;93.24
54850;BME280;47660;51.334;12.396;2023-03-26T02:34:00;99178.63;;;12.94;95.24
54850;BME280;47660;51.334;12.396;2023-03-26T02:36:27;99179.88;;;13.19;93.16
54850;BME280;47660;51.334;12.396;2023-03-26T02:38:54;99176.56;;;12.98;95.27
54850;BME280;47660;51.334;12.396;2023-03-26T02:41:22;99173.16;;;13.05;95.63
54850;BME280;47660;51.334;12.396;2023-03-26T02:43:47;99174.59;;;13.00;95.99
54850;BME280;47660;51.334;12.396;2023-03-26T02:46:13;99177.50;;;12.38;99.45
54850;BME280;47660;51.334;12.396;2023-03-26T02:48:38;99187.63;;;12.63;99.56
54850;BME280;47660;51.334;12.396;2023-03-26T02:51:05;99169.06;;;13.11;97.07
54850;BME280;47660;51.334;12.396;2023-03-26T02:53:33;99189.31;;;12.65;98.40
54850;BME280;47660;51.334;12.396;2023-03-26T02:56:02;99175.41;;;12.81;99.38
54850;BME280;47660;51.334;12.396;2023-03-26T02:58:27;99173.34;;;12.74;98.64
54850;BME280;47660;51.334;12.396;2023-03-26T03:00:55;99169.63;;;13.05;99.29
54850;BME280;47660;51.334;12.396;2023-03-26T03:03:25;99165.72;;;13.66;94.96
54850;BME280;47660;51.334;12.396;2023-03-26T03:05:52;99159.66;;;13.74;93.38
54850;BME280;47660;51.334;12.396;2023-03-26T03:08:19;99165.28;;;13.14;96.88
54850;BME280;47660;51.334;12.396;2023-03-26T03:11:09;99165.25;;;13.23;97.62
54850;BME280;47660;51.334;12.396;2023-03-26T03:13:35;99172.47;;;12.84;99.34
54850;BME280;47660;51.334;12.396;2023-03-26T03:16:03;99172.13;;;13.46;96.03
54850;BME280;47660;51.334;12.396;2023-03-26T03:18:29;99170.06;;;13.00;98.57
54850;BME280;47660;51.334;12.396;2023-03-26T03:20:54;99163.44;;;13.14;97.98
54850;BME280;47660;51.334;12.396;2023-03-26T03:23:22;99161.16;;;13.49;96.72
54850;BME280;47660;51.334;12.396;2023-03-26T03:25:47;99157.41;;;13.22;96.52
54850;BME280;47660;51.334;12.396;2023-03-26T03:28:14;99155.75;;;13.01;97.01
54850;BME280;47660;51.334;12.396;2023-03-26T03:30:44;99141.50;;;13.30;97.13
54850;BME280;47660;51.334;12.396;2023-03-26T03:33:13;99149.66;;;14.22;90.54
54850;BME280;47660;51.334;12.396;2023-03-26T03:35:40;99145.22;;;13.95;90.28
54850;BME280;47660;51.334;12.396;2023-03-26T03:38:06;99150.06;;;13.44;92.96
54850;BME280;47660;51.334;12.396;2023-03-26T03:40:32;99146.28;;;13.27;96.22
54850;BME280;47660;51.334;12.396;2023-03-26T03:42:57;99156.44;;;13.03;96.05
54850;BME280;47660;51.334;12.396;2023-03-26T03:45:22;99150.16;;;12.95;98.13
54850;BME280;47660;51.334;12.396;2023-03-26T03:47:48;99154.91;;;13.11;96.32
54850;BME280;47660;51.334;12.396;2023-03-26T03:50:16;99152.38;;;13.09;97.71
54850;BME280;47660;51.334;12.396;2023-03-26T03:52:42;99149.00;;;13.07;96.72
54850;BME280;47660;51.334;12.396;2023-03-26T03:55:08;99135.38;;;13.10;96.02
54850;BME280;47660;51.334;12.396;2023-03-26T03:57:38;99148.28;;;13.15;95.04
54850;BME280;47660;51.334;12.396;2023-03-26T04:00:05;99150.31;;;12.83;94.55
54850;BME280;47660;51.334;12.396;2023-03-26T04:02:33;99152.66;;;13.06;94.90
54850;BME280;47660;51.334;12.396;2023-03-26T04:05:01;99157.03;;;12.97;95.69
54850;BME280;47660;51.334;12.396;2023-03-26T04:07:29;99147.19;;;12.88;96.17
54850;BME280;47660;51.334;12.396;2023-03-26T04:09:56;99163.06;;;12.70;96.75
54850;BME280;47660;51.334;12.396;2023-03-26T04:12:26;99156.06;;;12.49;96.47
54850;BME280;47660;51.334;12.396;2023-03-26T04:14:51;99162.47;;;13.15;93.32
54850;BME280;47660;51.334;12.396;2023-03-26T04:17:20;99161.41;;;12.59;97.86
54850;BME280;47660;51.334;12.396;2023-03-26T04:19:46;99163.78;;;12.91;95.09
54850;BME280;47660;51.334;12.396;2023-03-26T04:22:17;99169.50;;;13.06;93.55
54850;BME280;47660;51.334;12.396;2023-03-26T04:24:44;99164.91;;;12.59;95.57
54850;BME280;47660;51.334;12.396;2023-03-26T04:27:16;99164.75;;;13.00;94.53
54850;BME280;47660;51.334;12.396;2023-03-26T04:29:45;99159.28;;;12.82;95.11
54850;BME280;47660;51.334;12.396;2023-03-26T04:32:25;99155.13;;;13.47;90.18
54850;BME280;47660;51.334;12.396;2023-03-26T04:34:54;99162.22;;;12.99;91.39
54850;BME280;47660;51.334;12.396;2023-03-26T04:37:40;99152.25;;;13.58;88.16
54850;BME280;47660;51.334;12.396;2023-03-26T04:40:19;99155.59;;;13.13;92.20
54850;BME280;47660;51.334;12.396;2023-03-26T04:42:46;99158.88;;;12.77;92.85
54850;BME280;47660;51.334;12.396;2023-03-26T04:45:16;99146.69;;;13.42;90.45
54850;BME280;47660;51.334;12.396;2023-03-26T04:47:42;99149.63;;;13.38;88.98
54850;BME280;47660;51.334;12.396;2023-03-26T04:50:09;99160.81;;;12.95;91.10
54850;BME280;47660;51.334;12.396;2023-03-26T04:52:36;99152.66;;;13.16;90.08
54850;BME280;47660;51.334;12.396;2023-03-26T04:55:02;99150.16;;;12.55;93.82
54850;BME280;47660;51.334;12.396;2023-03-26T04:57:38;99151.41;;;13.00;91.94
54850;BME280;47660;51.334;12.396;2023-03-26T05:00:08;99159.56;;;12.79;92.81
54850;BME280;47660;51.334;12.396;2023-03-26T05:02:44;99140.47;;;12.84;92.77
54850;BME280;47660;51.334;12.396;2023-03-26T05:05:13;99159.25;;;13.12;89.35
54850;BME280;47660;51.334;12.396;2023-03-26T05:07:41;99155.81;;;13.49;87.70
54850;BME280;47660;51.334;12.396;2023-03-26T05:10:07;99155.72;;;13.21;88.62
54850;BME280;47660;51.334;12.396;2023-03-26T05:12:35;99153.44;;;13.26;88.59
54850;BME280;47660;51.334;12.396;2023-03-26T05:15:00;99150.13;;;13.04;89.10
54850;BME280;47660;51.334;12.396;2023-03-26T05:17:26;99147.81;;;13.29;87.29
54850;BME280;47660;51.334;12.396;2023-03-26T05:19:55;99147.00;;;13.29;87.60
54850;BME280;47660;51.334;12.396;2023-03-26T05:22:21;99149.84;;;13.65;84.73
54850;BME280;47660;51.334;12.396;2023-03-26T05:24:47;99154.66;;;12.84;89.76
54850;BME280;47660;51.334;12.396;2023-03-26T05:27:15;99150.53;;;13.19;88.73
54850;BME280;47660;51.334;12.396;2023-03-26T05:29:43;99159.34;;;13.30;88.69
54850;BME280;47660;51.334;12.396;2023-03-26T05:32:11;99168.09;;;13.12;89.36
54850;BME280;47660;51.334;12.396;2023-03-26T05:34:38;99164.19;;;13.06;89.03
54850;BME280;47660;51.334;12.396;2023-03-26T05:37:04;99152.25;;;13.96;82.42
54850;BME280;47660;51.334;12.396;2023-03-26T05:39:31;99148.44;;;13.61;85.46
54850;BME280;47660;51.334;12.396;2023-03-26T05:41:56;99160.38;;;13.09;87.82
54850;BME280;47660;51.334;12.396;2023-03-26T05:44:22;99157.91;;;13.35;87.81
54850;BME280;47660;51.334;12.396;2023-03-26T05:46:47;99150.06;;;13.44;86.66
54850;BME280;47660;51.334;12.396;2023-03-26T05:49:15;99152.13;;;12.92;90.63
54850;BME280;47660;51.334;12.396;2023-03-26T05:51:43;99162.56;;;13.33;88.06
54850;BME280;47660;51.334;12.396;2023-03-26T05:54:08;99160.66;;;13.06;90.34
54850;BME280;47660;51.334;12.396;2023-03-26T05:56:33;99155.81;;;13.29;86.93
54850;BME280;47660;51.334;12.396;2023-03-26T05:59:00;99145.22;;;13.95;83.44
54850;BME280;47660;51.334;12.396;2023-03-26T06:01:25;99144.94;;;13.88;85.03
54850;BME280;47660;51.334;12.396;2023-03-26T06:03:51;99146.75;;;13.70;85.78
54850;BME280;47660;51.334;12.396;2023-03-26T06:06:18;99129.75;;;13.71;85.89
54850;BME280;47660;51.334;12.396;2023-03-26T06:08:49;99123.06;;;13.85;84.26
54850;BME280;47660;51.334;12.396;2023-03-26T06:11:19;99124.03;;;13.84;84.32
54850;BME280;47660;51.334;12.396;2023-03-26T06:13:45;99121.44;;;14.74;77.33
54850;BME280;47660;51.334;12.396;2023-03-26T06:16:12;99124.78;;;14.22;80.68
54850;BME280;47660;51.334;12.396;2023-03-26T06:18:38;99131.50;;;13.80;84.61
54850;BME280;47660;51.334;12.396;2023-03-26T06:21:05;99128.47;;;13.65;85.21
54850;BME280;47660;51.334;12.396;2023-03-26T06:23:33;99126.50;;;13.95;84.87
54850;BME280;47660;51.334;12.396;2023-03-26T06:25:58;99123.78;;;14.77;78.04
54850;BME280;47660;51.334;12.396;2023-03-26T06:28:24;99124.03;;;13.84;81.61
54850;BME280;47660;51.334;12.396;2023-03-26T06:30:50;99125.47;;;14.06;81.48
54850;BME280;47660;51.334;12.396;2023-03-26T06:33:16;99110.59;;;15.28;74.54
54850;BME280;47660;51.334;12.396;2023-03-26T06:35:42;99131.28;;;14.37;77.87
54850;BME280;47660;51.334;12.396;2023-03-26T06:38:09;99123.88;;;14.31;78.82
54850;BME280;47660;51.334;12.396;2023-03-26T06:40:37;99119.78;;;15.26;75.08
54850;BME280;47660;51.334;12.396;2023-03-26T06:43:03;99112.22;;;15.21;72.15
54850;BME280;47660;51.334;12.396;2023-03-26T06:45:31;99125.00;;;14.10;78.31
54850;BME280;47660;51.334;12.396;2023-03-26T06:48:00;99123.03;;;14.31;77.83
54850;BME280;47660;51.334;12.396;2023-03-26T06:50:26;99122.19;;;14.12;78.14
54850;BME280;47660;51.334;12.396;2023-03-26T06:52:55;99119.22;;;14.69;78.05
54850;BME280;47660;51.334;12.396;2023-03-26T06:55:21;99123.09;;;14.39;77.47
54850;BME280;47660;51.334;12.396;2023-03-26T06:57:50;99125.25;;;14.35;78.87
54850;BME280;47660;51.334;12.396;2023-03-26T07:00:16;99115.47;;;14.62;76.20
54850;BME280;47660;51.334;12.396;2023-03-26T07:02:45;99122.59;;;14.53;78.32
54850;BME280;47660;51.334;12.396;2023-03-26T07:05:11;99113.41;;;14.38;78.05
54850;BME280;47660;51.334;12.396;2023-03-26T07:07:36;99116.53;;;14.51;76.62
54850;BME280;47660;51.334;12.396;2023-03-26T07:10:03;99124.28;;;14.73;77.15
54850;BME280;47660;51.334;12.396;2023-03-26T07:12:31;99109.06;;;14.37;77.80
54850;BME280;47660;51.334;12.396;2023-03-26T07:14:56;99115.75;;;14.05;80.37
54850;BME280;47660;51.334;12.396;2023-03-26T07:17:23;99116.34;;;13.99;82.51
54850;BME280;47660;51.334;12.396;2023-03-26T07:19:49;99113.19;;;14.49;78.87
54850;BME280;47660;51.334;12.396;2023-03-26T07:22:21;99113.34;;;14.84;77.56
54850;BME280;47660;51.334;12.396;2023-03-26T07:24:50;99105.13;;;15.38;74.49
54850;BME280;47660;51.334;12.396;2023-03-26T07:33:13;99103.22;;;14.96;74.94
54850;BME280;47660;51.334;12.396;2023-03-26T07:46:53;99086.97;;;14.89;74.29
54850;BME280;47660;51.334;12.396;2023-03-26T07:49:19;99080.16;;;15.64;71.33
54850;BME280;47660;51.334;12.396;2023-03-26T07:51:46;99084.53;;;15.04;73.48
54850;BME280;47660;51.334;12.396;2023-03-26T07:54:16;99072.44;;;15.61;71.42
54850;BME280;47660;51.334;12.396;2023-03-26T07:56:49;99066.59;;;16.42;66.81
54850;BME280;47660;51.334;12.396;2023-03-26T08:02:01;99060.53;;;15.55;70.46
54850;BME280;47660;51.334;12.396;2023-03-26T08:07:47;99061.91;;;16.60;65.72
54850;BME280;47660;51.334;12.396;2023-03-26T08:10:33;99064.56;;;15.17;70.61
54850;BME280;47660;51.334;12.396;2023-03-26T08:13:22;99066.06;;;15.54;71.45
54850;BME280;47660;51.334;12.396;2023-03-26T08:18:48;99055.69;;;16.52;66.60
54850;BME280;47660;51.334;12.396;2023-03-26T08:21:21;99048.41;;;17.10;64.36
54850;BME280;47660;51.334;12.396;2023-03-26T08:29:45;99056.44;;;17.18;62.00
54850;BME280;47660;51.334;12.396;2023-03-26T08:32:16;99053.16;;;16.25;64.97
54850;BME280;47660;51.334;12.396;2023-03-26T08:34:42;99054.84;;;16.34;64.84
54850;BME280;47660;51.334;12.396;2023-03-26T08:37:08;99045.81;;;16.11;65.16
54850;BME280;47660;51.334;12.396;2023-03-26T08:39:35;99044.63;;;16.71;64.38
54850;BME280;47660;51.334;12.396;2023-03-26T09:18:55;99001.03;;;18.20;56.19
54850;BME280;47660;51.334;12.396;2023-03-26T09:24:32;98997.81;;;17.93;57.75
54850;BME280;47660;51.334;12.396;2023-03-26T09:35:13;98994.53;;;17.20;57.86
54850;BME280;47660;51.334;12.396;2023-03-26T09:37:55;99003.66;;;17.02;56.90
54850;BME280;47660;51.334;12.396;2023-03-26T09:40:52;98996.13;;;16.81;58.21
54850;BME280;47660;51.334;12.396;2023-03-26T09:46:27;98988.72;;;17.40;56.97
54850;BME280;47660;51.334;12.396;2023-03-26T10:03:47;98961.88;;;18.18;54.11
54850;BME280;47660;51.334;12.396;2023-03-26T10:20:48;98931.84;;;19.34;49.68
54850;BME280;47660;51.334;12.396;2023-03-26T10:31:29;98917.31;;;18.83;49.10
54850;BME280;47660;51.334;12.396;2023-03-26T10:52:48;98915.53;;;18.91;49.81
54850;BME280;47660;51.334;12.396;2023-03-26T10:55:33;98912.09;;;18.37;48.82
54850;BME280;47660;51.334;12.396;2023-03-26T10:58:22;98903.50;;;18.71;48.49
54850;BME280;47660;51.334;12.396;2023-03-26T11:11:04;98898.47;;;18.83;48.39
54850;BME280;47660;51.334;12.396;2023-03-26T11:21:17;98905.53;;;18.69;48.97
54850;BME280;47660;51.334;12.396;2023-03-26T11:26:58;98903.03;;;17.53;50.77
54850;BME280;47660;51.334;12.396;2023-03-26T11:29:40;98901.41;;;18.14;49.19
54850;BME280;47660;51.334;12.396;2023-03-26T11:32:19;98896.34;;;18.79;48.55
54850;BME280;47660;51.334;12.396;2023-03-26T11:35:00;98887.13;;;20.05;46.83
54850;BME280;47660;51.334;12.396;2023-03-26T11:37:41;98897.81;;;19.70;46.74
54850;BME280;47660;51.334;12.396;2023-03-26T11:40:19;98890.50;;;17.92;49.02
54850;BME280;47660;51.334;12.396;2023-03-26T11:42:53;98892.97;;;18.32;48.69
54850;BME280;47660;51.334;12.396;2023-03-26T11:45:22;98888.25;;;17.95;48.42
54850;BME280;47660;51.334;12.396;2023-03-26T11:47:51;98884.63;;;17.88;48.54
54850;BME280;47660;51.334;12.396;2023-03-26T11:50:23;98882.13;;;18.40;47.35
54850;BME280;47660;51.334;12.396;2023-03-26T11:52:50;98884.44;;;18.13;48.67
54850;BME280;47660;51.334;12.396;2023-03-26T11:55:15;98882.06;;;18.78;47.95
54850;BME280;47660;51.334;12.396;2023-03-26T11:57:49;98880.94;;;18.28;48.39
54850;BME280;47660;51.334;12.396;2023-03-26T12:00:21;98881.69;;;17.98;49.64
54850;BME280;47660;51.334;12.396;2023-03-26T12:02:55;98886.03;;;18.52;48.41
54850;BME280;47660;51.334;12.396;2023-03-26T12:05:27;98876.44;;;19.10;47.30
54850;BME280;47660;51.334;12.396;2023-03-26T12:07:59;98873.47;;;19.20;47.39
54850;BME280;47660;51.334;12.396;2023-03-26T12:10:42;98871.53;;;19.35;46.93
54850;BME280;47660;51.334;12.396;2023-03-26T12:13:37;98865.63;;;18.73;47.04
54850;BME280;47660;51.334;12.396;2023-03-26T12:16:07;98858.19;;;19.27;46.45
54850;BME280;47660;51.334;12.396;2023-03-26T12:18:33;98860.75;;;19.13;47.16
54850;BME280;47660;51.334;12.396;2023-03-26T12:26:11;98850.09;;;18.90;47.79
54850;BME280;47660;51.334;12.396;2023-03-26T12:28:43;98839.84;;;18.19;47.97
54850;BME280;47660;51.334;12.396;2023-03-26T12:31:11;98843.69;;;17.63;50.07
54850;BME280;47660;51.334;12.396;2023-03-26T12:33:43;98850.22;;;17.22;50.70
54850;BME280;47660;51.334;12.396;2023-03-26T12:36:21;98860.38;;;17.03;56.27
54850;BME280;47660;51.334;12.396;2023-03-26T12:38:51;98879.97;;;16.64;59.37
54850;BME280;47660;51.334;12.396;2023-03-26T12:41:32;98891.44;;;15.42;69.28
54850;BME280;47660;51.334;12.396;2023-03-26T12:44:35;98908.03;;;14.86;87.75
54850;BME280;47660;51.334;12.396;2023-03-26T12:47:25;98915.38;;;14.84;82.82
54850;BME280;47660;51.334;12.396;2023-03-26T12:49:53;98905.50;;;15.27;79.93
54850;BME280;47660;51.334;12.396;2023-03-26T12:55:36;98885.13;;;16.09;92.95
54850;BME280;47660;51.334;12.396;2023-03-26T13:00:51;98868.44;;;16.95;95.67
54850;BME280;47660;51.334;12.396;2023-03-26T13:06:17;98860.09;;;17.21;88.98
54850;BME280;47660;51.334;12.396;2023-03-26T13:22:51;98856.41;;;16.51;82.20
54850;BME280;47660;51.334;12.396;2023-03-26T13:25:52;98855.56;;;16.99;76.01
54850;BME280;47660;51.334;12.396;2023-03-26T13:31:21;98848.47;;;16.58;74.57
54850;BME280;47660;51.334;12.396;2023-03-26T13:43:11;98846.81;;;15.92;82.41
54850;BME280;47660;51.334;12.396;2023-03-26T13:45:41;98849.59;;;16.32;78.29
54850;BME280;47660;51.334;12.396;2023-03-26T13:48:18;98843.63;;;15.80;80.56
54850;BME280;47660;51.334;12.396;2023-03-26T13:50:54;98843.94;;;15.52;81.24
54850;BME280;47660;51.334;12.396;2023-03-26T13:53:24;98838.75;;;15.75;80.62
54850;BME280;47660;51.334;12.396;2023-03-26T13:55:58;98848.47;;;15.43;79.04
54850;BME280;47660;51.334;12.396;2023-03-26T13:58:34;98834.84;;;16.36;74.55
54850;BME280;47660;51.334;12.396;2023-03-26T14:01:08;98841.09;;;15.79;75.74
54850;BME280;47660;51.334;12.396;2023-03-26T14:14:54;98837.06;;;15.25;77.08
54850;BME280;47660;51.334;12.396;2023-03-26T14:17:36;98845.06;;;15.08;80.10
54850;BME280;47660;51.334;12.396;2023-03-26T14:20:41;98839.16;;;14.96;82.92
54850;BME280;47660;51.334;12.396;2023-03-26T14:23:47;98837.09;;;15.41;79.24
54850;BME280;47660;51.334;12.396;2023-03-26T14:29:30;98835.53;;;15.14;82.43
54850;BME280;47660;51.334;12.396;2023-03-26T14:38:18;98837.22;;;15.15;87.23
54850;BME280;47660;51.334;12.396;2023-03-26T14:40:55;98836.66;;;14.95;91.48
54850;BME280;47660;51.334;12.396;2023-03-26T14:46:53;98835.50;;;14.54;94.90
54850;BME280;47660;51.334;12.396;2023-03-26T15:18:00;98813.47;;;15.78;95.90
54850;BME280;47660;51.334;12.396;2023-03-26T15:21:17;98821.84;;;15.50;94.03
54850;BME280;47660;51.334;12.396;2023-03-26T15:27:19;98828.72;;;15.44;97.54
54850;BME280;47660;51.334;12.396;2023-03-26T15:41:29;98816.50;;;15.83;98.22
54850;BME280;47660;51.334;12.396;2023-03-26T15:44:03;98822.03;;;15.40;96.65
54850;BME280;47660;51.334;12.396;2023-03-26T15:49:40;98822.19;;;15.47;99.75
54850;BME280;47660;51.334;12.396;2023-03-26T15:52:15;98822.03;;;15.49;100.00
54850;BME280;47660;51.334;12.396;2023-03-26T15:58:06;98815.50;;;15.26;98.01
54850;BME280;47660;51.334;12.396;2023-03-26T16:00:35;98814.44;;;15.03;99.42
54850;BME280;47660;51.334;12.396;2023-03-26T16:03:12;98812.31;;;15.64;96.96
54850;BME280;47660;51.334;12.396;2023-03-26T16:11:06;98814.03;;;14.73;100.00
54850;BME280;47660;51.334;12.396;2023-03-26T16:13:48;98813.63;;;14.24;100.00
54850;BME280;47660;51.334;12.396;2023-03-26T16:19:25;98808.97;;;15.54;96.77
54850;BME280;47660;51.334;12.396;2023-03-26T16:21:53;98808.44;;;15.09;98.55
54850;BME280;47660;51.334;12.396;2023-03-26T16:24:24;98802.28;;;15.41;98.88
54850;BME280;47660;51.334;12.396;2023-03-26T16:29:20;98807.47;;;14.67;100.00
54850;BME280;47660;51.334;12.396;2023-03-26T16:37:46;98806.06;;;14.81;100.00
54850;BME280;47660;51.334;12.396;2023-03-26T16:48:56;98808.28;;;14.59;100.00
54850;BME280;47660;51.334;12.396;2023-03-26T16:54:53;98804.44;;;15.13;100.00
54850;BME280;47660;51.334;12.396;2023-03-26T17:08:06;98803.28;;;15.65;97.68
54850;BME280;47660;51.334;12.396;2023-03-26T17:16:03;98806.97;;;15.64;97.29
54850;BME280;47660;51.334;12.396;2023-03-26T17:18:48;98805.59;;;15.85;97.19
54850;BME280;47660;51.334;12.396;2023-03-26T17:25:01;98809.63;;;15.14;100.00
54850;BME280;47660;51.334;12.396;2023-03-26T17:27:45;98813.53;;;14.77;100.00
54850;BME280;47660;51.334;12.396;2023-03-26T17:30:41;98815.97;;;15.22;100.00
54850;BME280;47660;51.334;12.396;2023-03-26T17:33:26;98818.00;;;15.36;100.00
54850;BME280;47660;51.334;12.396;2023-03-26T17:41:02;98820.31;;;15.23;100.00
54850;BME280;47660;51.334;12.396;2023-03-26T17:43:50;98822.34;;;15.79;97.84
54850;BME280;47660;51.334;12.396;2023-03-26T17:52:02;98825.69;;;15.14;100.00
54850;BME280;47660;51.334;12.396;2023-03-26T17:54:33;98820.50;;;15.71;96.67
54850;BME280;47660;51.334;12.396;2023-03-26T17:57:05;98835.38;;;15.24;100.00
54850;BME280;47660;51.334;12.396;2023-03-26T17:59:35;98829.53;;;15.45;100.00
54850;BME280;47660;51.334;12.396;2023-03-26T18:02:03;98827.91;;;14.76;100.00
54850;BME280;47660;51.334;12.396;2023-03-26T18:04:38;98832.97;;;14.53;100.00
54850;BME280;47660;51.334;12.396;2023-03-26T18:20:45;98828.88;;;15.26;100.00
54850;BME280;47660;51.334;12.396;2023-03-26T18:23:40;98833.09;;;15.62;99.46
54850;BME280;47660;51.334;12.396;2023-03-26T18:26:13;98829.69;;;15.10;100.00
54850;BME280;47660;51.334;12.396;2023-03-26T18:28:48;98832.88;;;15.22;100.00
54850;BME280;47660;51.334;12.396;2023-03-26T18:31:21;98829.38;;;15.30;100.00
54850;BME280;47660;51.334;12.396;2023-03-26T18:33:49;98840.06;;;15.13;100.00
54850;BME280;47660;51.334;12.396;2023-03-26T18:36:19;98830.34;;;15.21;100.00
54850;BME280;47660;51.334;12.396;2023-03-26T18:38:45;98829.66;;;14.94;100.00
54850;BME280;47660;51.334;12.396;2023-03-26T18:41:41;98827.69;;;15.29;100.00
54850;BME280;47660;51.334;12.396;2023-03-26T18:44:12;98824.66;;;15.24;100.00
54850;BME280;47660;51.334;12.396;2023-03-26T18:46:39;98831.81;;;14.98;100.00
54850;BME280;47660;51.334;12.396;2023-03-26T18:49:05;98824.66;;;15.24;100.00
54850;BME280;47660;51.334;12.396;2023-03-26T18:51:31;98829.00;;;15.08;100.00
54850;BME280;47660;51.334;12.396;2023-03-26T18:54:02;98825.31;;;15.18;100.00
54850;BME280;47660;51.334;12.396;2023-03-26T18:56:35;98819.84;;;15.27;100.00
54850;BME280;47660;51.334;12.396;2023-03-26T18:59:04;98827.03;;;15.27;100.00
54850;BME280;47660;51.334;12.396;2023-03-26T19:01:33;98826.84;;;15.20;100.00
54850;BME280;47660;51.334;12.396;2023-03-26T19:04:04;98818.66;;;15.22;100.00
54850;BME280;47660;51.334;12.396;2023-03-26T19:06:37;98817.53;;;15.41;99.69
54850;BME280;47660;51.334;12.396;2023-03-26T19:09:05;98821.34;;;15.38;99.75